createdAt,value
2022-09-14T00:01:34.824Z,77.02
2022-09-14T00:04:09.482Z,77.07
2022-09-14T00:06:41.259Z,77.17
2022-09-14T00:09:24.710Z,77.17
2022-09-14T00:11:59.766Z,77.26
2022-09-14T00:14:29.880Z,77.61
2022-09-14T00:17:00.944Z,77.49
2022-09-14T00:19:31.257Z,77.55
2022-09-14T00:22:07.383Z,77.57
2022-09-14T00:24:39.009Z,77.64
2022-09-14T00:27:10.259Z,77.64
2022-09-14T00:29:51.744Z,77.71
2022-09-14T00:32:23.254Z,77.67
2022-09-14T00:37:39.642Z,77.97
2022-09-14T00:40:12.655Z,77.74
2022-09-14T00:42:43.799Z,77.99
2022-09-14T00:45:21.591Z,77.91
2022-09-14T00:47:56.918Z,77.88
2022-09-14T00:50:26.360Z,78.01
2022-09-14T00:52:57.758Z,78.03
2022-09-14T00:55:28.289Z,78.08
2022-09-14T00:57:57.942Z,78.12
2022-09-14T01:00:33.476Z,77.99
2022-09-14T01:03:04.614Z,77.98
2022-09-14T01:05:57.532Z,78.16
2022-09-14T01:08:56.142Z,78.23
2022-09-14T01:11:51.522Z,78.52
2022-09-14T01:14:34.855Z,78.48
2022-09-14T01:17:16.810Z,78.54
2022-09-14T01:20:15.339Z,78.54
2022-09-14T01:22:52.923Z,78.63
2022-09-14T01:26:35.058Z,78.73
2022-09-14T01:29:17.199Z,78.93
2022-09-14T01:31:57.340Z,79.16
2022-09-14T01:34:38.969Z,78.94
2022-09-14T01:37:17.284Z,79.09
2022-09-14T01:39:53.276Z,78.90
2022-09-14T01:42:32.471Z,79.13
2022-09-14T01:45:10.477Z,79.35
2022-09-14T01:47:50.909Z,79.30
2022-09-14T01:50:27.607Z,79.28
2022-09-14T01:53:16.977Z,79.36
2022-09-14T01:56:04.963Z,79.43
2022-09-14T01:58:42.415Z,79.62
2022-09-14T02:01:25.044Z,79.67
2022-09-14T02:04:09.210Z,80.05
2022-09-14T02:06:44.041Z,79.98
2022-09-14T02:09:19.189Z,79.86
2022-09-14T02:11:58.573Z,79.93
2022-09-14T02:14:41.370Z,80.06
2022-09-14T02:17:14.523Z,80.20
2022-09-14T02:19:54.819Z,80.49
2022-09-14T02:22:23.942Z,80.55
2022-09-14T02:24:53.444Z,80.35
2022-09-14T02:27:22.494Z,80.35
2022-09-14T02:29:52.122Z,80.24
2022-09-14T02:32:36.969Z,80.33
2022-09-14T02:35:17.762Z,80.17
2022-09-14T02:37:57.388Z,80.16
2022-09-14T02:40:35.752Z,80.31
2022-09-14T02:43:28.015Z,80.26
2022-09-14T02:46:06.115Z,80.26
2022-09-14T02:48:43.191Z,80.24
2022-09-14T02:51:27.466Z,80.34
2022-09-14T02:54:04.828Z,80.31
2022-09-14T02:56:36.272Z,80.36
2022-09-14T02:59:05.866Z,80.44
2022-09-14T03:01:35.179Z,80.35
2022-09-14T03:04:05.845Z,80.35
2022-09-14T03:06:34.559Z,80.58
2022-09-14T03:09:03.455Z,80.62
2022-09-14T03:11:32.426Z,80.43
2022-09-14T03:14:01.114Z,80.74
2022-09-14T03:16:29.870Z,80.86
2022-09-14T03:18:58.687Z,80.74
2022-09-14T03:21:28.700Z,81.03
2022-09-14T03:23:57.983Z,81.00
2022-09-14T03:26:29.165Z,80.80
2022-09-14T03:29:00.441Z,80.69
2022-09-14T03:31:29.393Z,80.80
2022-09-14T03:34:00.473Z,80.56
2022-09-14T03:36:32.695Z,80.83
2022-09-14T03:39:02.945Z,80.85
2022-09-14T03:41:31.699Z,80.68
2022-09-14T03:44:00.428Z,80.92
2022-09-14T03:46:29.317Z,80.80
2022-09-14T03:48:57.974Z,80.74
2022-09-14T03:51:26.708Z,80.74
2022-09-14T03:53:56.895Z,80.80
2022-09-14T03:56:25.695Z,80.96
2022-09-14T03:58:54.767Z,80.80
2022-09-14T04:01:24.696Z,80.99
2022-09-14T04:03:53.703Z,80.89
2022-09-14T04:06:22.451Z,80.93
2022-09-14T04:08:51.093Z,80.94
2022-09-14T04:11:25.453Z,80.74
2022-09-14T04:13:54.921Z,80.63
2022-09-14T04:16:23.838Z,80.86
2022-09-14T04:18:53.197Z,80.83
2022-09-14T04:21:25.697Z,80.62
2022-09-14T04:24:13.889Z,80.93
2022-09-14T04:26:46.836Z,80.97
2022-09-14T04:29:16.104Z,80.78
2022-09-14T04:31:44.893Z,80.80
2022-09-14T04:34:14.818Z,80.76
2022-09-14T04:36:44.050Z,80.60
2022-09-14T04:39:15.310Z,80.80
2022-09-14T04:41:45.985Z,80.63
2022-09-14T04:44:14.715Z,80.74
2022-09-14T04:46:46.542Z,80.61
2022-09-14T04:49:18.850Z,80.67
2022-09-14T04:51:47.996Z,80.48
2022-09-14T04:54:19.244Z,80.49
2022-09-14T04:56:49.575Z,80.46
2022-09-14T04:59:18.291Z,80.59
2022-09-14T05:01:49.153Z,80.54
2022-09-14T05:04:18.714Z,80.64
2022-09-14T05:06:47.447Z,80.50
2022-09-14T05:09:19.097Z,80.99
2022-09-14T05:11:51.919Z,81.01
2022-09-14T05:14:20.677Z,80.91
2022-09-14T05:16:49.439Z,81.07
2022-09-14T05:19:19.440Z,80.97
2022-09-14T05:21:48.674Z,81.20
2022-09-14T05:24:19.576Z,81.21
2022-09-14T05:26:49.664Z,81.32
2022-09-14T05:29:20.408Z,81.26
2022-09-14T05:31:49.351Z,81.52
2022-09-14T05:34:18.201Z,81.40
2022-09-14T05:36:46.874Z,81.37
2022-09-14T05:39:18.691Z,81.34
2022-09-14T05:41:52.326Z,81.36
2022-09-14T05:44:20.940Z,81.26
2022-09-14T05:46:49.681Z,81.27
2022-09-14T05:49:18.632Z,81.22
2022-09-14T05:51:47.944Z,81.10
2022-09-14T05:54:16.776Z,81.15
2022-09-14T05:56:45.720Z,81.32
2022-09-14T05:59:16.015Z,81.26
2022-09-14T06:01:44.794Z,81.09
2022-09-14T06:04:13.582Z,80.93
2022-09-14T06:06:49.330Z,80.82
2022-09-14T06:09:33.199Z,80.82
2022-09-14T06:12:02.291Z,80.78
2022-09-14T06:14:32.461Z,80.80
2022-09-14T06:17:01.496Z,80.68
2022-09-14T06:19:30.170Z,80.46
2022-09-14T06:21:59.134Z,80.68
2022-09-14T06:24:27.819Z,80.83
2022-09-14T06:26:56.508Z,80.66
2022-09-14T06:29:25.223Z,80.19
2022-09-14T06:31:55.907Z,80.01
2022-09-14T06:34:24.569Z,79.93
2022-09-14T06:36:53.215Z,79.97
2022-09-14T06:39:21.831Z,79.66
2022-09-14T06:41:51.945Z,79.62
2022-09-14T06:44:21.692Z,79.76
2022-09-14T06:46:50.313Z,79.68
2022-09-14T06:49:23.115Z,79.70
2022-09-14T06:51:55.438Z,79.62
2022-09-14T06:54:24.670Z,79.61
2022-09-14T06:56:53.441Z,79.52
2022-09-14T06:59:22.109Z,79.51
2022-09-14T07:01:51.122Z,79.40
2022-09-14T07:04:21.682Z,79.39
2022-09-14T07:06:51.489Z,79.40
2022-09-14T07:09:21.146Z,79.28
2022-09-14T07:11:50.349Z,79.05
2022-09-14T07:14:20.280Z,79.04
2022-09-14T07:16:49.190Z,79.02
2022-09-14T07:19:18.053Z,78.74
2022-09-14T07:21:54.016Z,78.98
2022-09-14T07:24:24.951Z,78.92
2022-09-14T07:26:53.670Z,78.94
2022-09-14T07:29:23.057Z,79.02
2022-09-14T07:31:54.465Z,79.22
2022-09-14T07:34:33.271Z,79.00
2022-09-14T07:37:03.284Z,78.84
2022-09-14T07:39:32.091Z,78.79
2022-09-14T07:42:01.037Z,78.65
2022-09-14T07:44:29.980Z,78.47
2022-09-14T07:46:58.721Z,78.45
2022-09-14T07:49:27.672Z,78.42
2022-09-14T07:51:56.409Z,78.05
2022-09-14T07:54:26.765Z,78.15
2022-09-14T07:56:55.913Z,77.63
2022-09-14T07:59:35.610Z,77.66
2022-09-14T08:02:07.633Z,77.55
2022-09-14T08:04:37.814Z,77.31
2022-09-14T08:07:07.909Z,77.26
2022-09-14T08:09:39.710Z,77.13
2022-09-14T08:12:08.591Z,76.99
2022-09-14T08:14:37.186Z,76.77
2022-09-14T08:17:06.161Z,76.63
2022-09-14T08:19:35.021Z,76.85
2022-09-14T08:22:04.343Z,76.87
2022-09-14T08:24:33.591Z,76.56
2022-09-14T08:27:03.597Z,76.52
2022-09-14T08:29:32.253Z,76.47
2022-09-14T08:32:01.195Z,76.10
2022-09-14T08:34:30.125Z,76.23
2022-09-14T08:36:58.796Z,75.97
2022-09-14T08:39:27.490Z,75.38
2022-09-14T08:42:00.207Z,75.26
2022-09-14T08:44:34.729Z,74.93
2022-09-14T08:47:05.840Z,75.37
2022-09-14T08:49:51.227Z,75.44
2022-09-14T08:52:29.385Z,75.37
2022-09-14T08:55:00.976Z,74.90
2022-09-14T08:57:40.399Z,74.83
2022-09-14T09:00:16.891Z,74.94
2022-09-14T09:03:20.600Z,73.73
2022-09-14T09:05:56.245Z,73.46
2022-09-14T09:08:44.068Z,73.04
2022-09-14T09:11:21.318Z,73.17
2022-09-14T09:13:54.318Z,72.90
2022-09-14T09:16:28.861Z,72.92
2022-09-14T09:19:03.690Z,73.12
2022-09-14T09:21:40.891Z,73.01
2022-09-14T09:24:25.479Z,73.03
2022-09-14T09:26:54.220Z,72.95
2022-09-14T09:29:23.146Z,71.87
2022-09-14T09:32:19.502Z,71.02
2022-09-14T09:35:25.707Z,71.22
2022-09-14T09:38:03.142Z,71.46
2022-09-14T09:40:39.792Z,70.99
2022-09-14T09:43:11.674Z,71.34
2022-09-14T09:45:59.272Z,70.65
2022-09-14T09:48:42.054Z,70.63
2022-09-14T09:51:15.994Z,70.33
2022-09-14T09:53:51.881Z,70.26
2022-09-14T09:56:25.513Z,69.68
2022-09-14T09:58:58.406Z,69.21
2022-09-14T10:01:30.770Z,69.56
2022-09-14T10:04:18.613Z,68.76
2022-09-14T10:06:50.462Z,69.36
2022-09-14T10:09:32.456Z,68.99
2022-09-14T10:12:04.353Z,68.49
2022-09-14T10:14:35.947Z,68.31
2022-09-14T10:17:17.707Z,68.25
2022-09-14T10:19:51.602Z,68.30
2022-09-14T10:22:28.540Z,68.24
2022-09-14T10:25:00.354Z,68.15
2022-09-14T10:27:48.597Z,68.62
2022-09-14T10:30:19.677Z,69.19
2022-09-14T10:33:00.454Z,69.56
2022-09-14T10:35:44.359Z,69.67
2022-09-14T10:38:33.470Z,70.76
2022-09-14T10:41:23.556Z,71.06
2022-09-14T10:44:29.674Z,71.03
2022-09-14T10:47:25.037Z,71.32
2022-09-14T10:50:24.801Z,72.12
2022-09-14T10:53:13.510Z,72.70
2022-09-14T10:56:05.165Z,73.79
2022-09-14T10:59:15.590Z,74.33
2022-09-14T11:02:21.268Z,74.83
2022-09-14T11:05:14.900Z,74.89
2022-09-14T11:08:08.227Z,74.09
2022-09-14T11:11:12.315Z,74.75
2022-09-14T11:14:12.738Z,74.73
2022-09-14T11:17:10.586Z,74.75
2022-09-14T11:19:56.290Z,73.93
2022-09-14T11:22:38.501Z,74.91
2022-09-14T11:25:17.976Z,75.24
2022-09-14T11:27:53.066Z,75.45
2022-09-14T11:30:27.137Z,74.94
2022-09-14T11:33:04.623Z,75.42
2022-09-14T11:35:40.209Z,75.09
2022-09-14T11:38:19.380Z,74.25
2022-09-14T11:40:57.869Z,74.82
2022-09-14T11:43:36.058Z,75.55
2022-09-14T11:46:12.250Z,74.93
2022-09-14T11:48:53.805Z,75.09
2022-09-14T11:51:29.843Z,74.89
2022-09-14T11:53:58.702Z,74.78
2022-09-14T11:56:32.873Z,74.58
2022-09-14T11:59:07.268Z,74.13
2022-09-14T12:01:44.511Z,74.45
2022-09-14T12:04:37.668Z,73.93
2022-09-14T12:07:06.528Z,73.78
2022-09-14T12:09:54.902Z,73.49
2022-09-14T12:12:46.890Z,73.49
2022-09-14T12:15:43.668Z,73.14
2022-09-14T12:18:24.354Z,73.36
2022-09-14T12:21:03.848Z,73.41
2022-09-14T12:23:44.694Z,73.03
2022-09-14T12:26:32.881Z,71.57
2022-09-14T12:29:28.979Z,71.31
2022-09-14T12:32:43.402Z,70.92
2022-09-14T12:35:48.087Z,70.19
2022-09-14T12:38:43.253Z,69.91
2022-09-14T12:42:01.500Z,69.86
2022-09-14T12:44:39.801Z,69.87
2022-09-14T12:48:02.458Z,70.09
2022-09-14T12:50:37.397Z,70.16
2022-09-14T12:53:30.998Z,70.08
2022-09-14T12:56:07.805Z,70.43
2022-09-14T12:59:08.353Z,70.70
2022-09-14T13:01:52.024Z,71.14
2022-09-14T13:04:28.091Z,70.93
2022-09-14T13:07:00.697Z,71.62
2022-09-14T13:09:32.013Z,72.24
2022-09-14T13:12:05.171Z,72.08
2022-09-14T13:14:42.062Z,72.23
2022-09-14T13:17:17.438Z,72.31
2022-09-14T13:19:57.468Z,72.88
2022-09-14T13:22:31.999Z,72.90
2022-09-14T13:25:02.517Z,72.42
2022-09-14T13:27:36.133Z,73.08
2022-09-14T13:30:17.989Z,73.13
2022-09-14T13:32:53.291Z,73.26
2022-09-14T13:35:33.700Z,73.64
2022-09-14T13:38:10.402Z,73.33
2022-09-14T13:40:41.316Z,73.58
2022-09-14T13:43:11.702Z,73.65
2022-09-14T13:45:42.265Z,73.43
2022-09-14T13:48:16.047Z,73.36
2022-09-14T13:50:49.274Z,73.37
2022-09-14T13:53:53.187Z,74.51
2022-09-14T13:56:31.408Z,74.47
2022-09-14T13:59:21.636Z,74.76
2022-09-14T14:01:59.215Z,75.09
2022-09-14T14:04:37.121Z,75.06
2022-09-14T14:07:17.115Z,75.45
2022-09-14T14:09:50.937Z,75.43
2022-09-14T14:12:29.328Z,75.46
2022-09-14T14:15:00.821Z,75.74
2022-09-14T14:17:38.719Z,75.95
2022-09-14T14:20:34.118Z,75.63
2022-09-14T14:23:21.851Z,75.68
2022-09-14T14:25:54.437Z,75.63
2022-09-14T14:28:28.201Z,75.50
2022-09-14T14:30:58.847Z,75.64
2022-09-14T14:33:32.285Z,75.83
2022-09-14T14:36:09.407Z,75.83
2022-09-14T14:38:38.618Z,76.29
2022-09-14T14:41:09.470Z,76.50
2022-09-14T14:43:42.151Z,76.37
2022-09-14T14:46:11.681Z,76.38
2022-09-14T14:48:40.574Z,76.70
2022-09-14T14:51:16.162Z,77.32
2022-09-14T14:53:46.215Z,77.21
2022-09-14T14:56:15.595Z,76.86
2022-09-14T14:58:46.064Z,76.87
2022-09-14T15:01:16.476Z,76.75
2022-09-14T15:03:45.632Z,77.00
2022-09-14T15:06:21.076Z,76.78
2022-09-14T15:08:54.276Z,77.04
2022-09-14T15:11:24.047Z,76.77
2022-09-14T15:13:55.969Z,76.82
2022-09-14T15:16:25.209Z,76.90
2022-09-14T15:18:57.982Z,76.85
2022-09-14T15:21:35.169Z,76.91
2022-09-14T15:24:04.836Z,76.90
2022-09-14T15:26:34.945Z,77.00
2022-09-14T15:29:04.720Z,77.11
2022-09-14T15:31:33.972Z,77.27
2022-09-14T15:34:03.053Z,77.59
2022-09-14T15:36:53.738Z,78.14
2022-09-14T15:39:33.336Z,78.15
2022-09-14T15:42:04.179Z,78.37
2022-09-14T15:44:33.351Z,78.57
2022-09-14T15:47:03.086Z,78.48
2022-09-14T15:49:32.382Z,78.46
2022-09-14T15:52:03.999Z,78.78
2022-09-14T15:54:37.370Z,78.80
2022-09-14T15:57:09.466Z,79.00
2022-09-14T15:59:39.758Z,79.16
2022-09-14T16:02:10.006Z,79.18
2022-09-14T16:04:40.589Z,78.99
2022-09-14T16:07:11.778Z,78.97
2022-09-14T16:09:42.352Z,79.53
2022-09-14T16:12:14.741Z,79.51
2022-09-14T16:14:43.615Z,79.62
2022-09-14T16:17:12.627Z,79.71
2022-09-14T16:19:41.697Z,79.78
2022-09-14T16:22:12.115Z,79.71
2022-09-14T16:24:43.831Z,79.89
2022-09-14T16:27:12.811Z,79.91
2022-09-14T16:29:42.056Z,80.15
2022-09-14T16:32:13.067Z,80.53
2022-09-14T16:34:45.533Z,80.84
2022-09-14T16:37:20.748Z,80.84
2022-09-14T16:39:49.797Z,81.44
2022-09-14T16:42:19.469Z,81.26
2022-09-14T16:44:49.200Z,81.81
2022-09-14T16:47:20.134Z,81.66
2022-09-14T16:49:51.917Z,81.85
2022-09-14T16:52:23.154Z,81.49
2022-09-14T16:54:56.040Z,81.74
2022-09-14T16:57:30.302Z,81.81
2022-09-14T17:00:00.036Z,81.89
2022-09-14T17:02:32.352Z,82.20
2022-09-14T17:05:01.408Z,82.24
2022-09-14T17:07:35.668Z,82.40
2022-09-14T17:10:05.271Z,82.13
2022-09-14T17:12:34.576Z,82.49
2022-09-14T17:15:04.045Z,82.49
2022-09-14T17:17:33.547Z,82.62
2022-09-14T17:20:03.421Z,82.37
2022-09-14T17:22:34.976Z,82.57
2022-09-14T17:25:13.752Z,82.25
2022-09-14T17:27:48.459Z,82.55
2022-09-14T17:30:18.992Z,82.58
2022-09-14T17:32:51.011Z,82.63
2022-09-14T17:35:20.168Z,82.71
2022-09-14T17:37:50.554Z,82.65
2022-09-14T17:40:19.906Z,82.93
2022-09-14T17:42:49.383Z,82.77
2022-09-14T17:45:31.778Z,82.60
2022-09-14T17:48:02.199Z,82.97
2022-09-14T17:50:31.988Z,82.87
2022-09-14T17:53:02.920Z,82.87
2022-09-14T17:55:37.637Z,83.24
2022-09-14T17:58:10.194Z,83.66
2022-09-14T18:00:46.310Z,84.32
2022-09-14T18:03:18.366Z,84.34
2022-09-14T18:05:56.317Z,84.67
2022-09-14T18:08:27.395Z,85.07
2022-09-14T18:10:59.729Z,85.20
2022-09-14T18:13:29.097Z,84.99
2022-09-14T18:15:59.182Z,85.22
2022-09-14T18:18:31.207Z,85.20
2022-09-14T18:21:01.977Z,85.26
2022-09-14T18:23:40.866Z,85.17
2022-09-14T18:26:10.573Z,85.12
2022-09-14T18:28:45.057Z,85.22
2022-09-14T18:31:21.608Z,85.02
2022-09-14T18:33:59.355Z,85.24
2022-09-14T18:36:31.656Z,85.39
2022-09-14T18:39:05.032Z,85.32
2022-09-14T18:41:36.316Z,85.17
2022-09-14T18:44:06.217Z,85.04
2022-09-14T18:46:35.759Z,85.19
2022-09-14T18:49:08.772Z,85.10
2022-09-14T18:51:39.116Z,85.16
2022-09-14T18:54:13.749Z,85.55
2022-09-14T18:56:44.189Z,85.44
2022-09-14T18:59:16.855Z,85.62
2022-09-14T19:01:46.635Z,85.78
2022-09-14T19:04:17.040Z,85.65
2022-09-14T19:06:46.680Z,85.89
2022-09-14T19:09:20.602Z,85.93
2022-09-14T19:11:53.667Z,85.89
2022-09-14T19:14:23.335Z,85.70
2022-09-14T19:16:59.676Z,85.56
2022-09-14T19:19:30.770Z,85.46
2022-09-14T19:22:06.417Z,85.78
2022-09-14T19:24:37.489Z,85.37
2022-09-14T19:27:09.826Z,85.50
2022-09-14T19:29:39.497Z,85.66
2022-09-14T19:32:09.265Z,85.28
2022-09-14T19:34:39.059Z,85.23
2022-09-14T19:37:08.509Z,85.17
2022-09-14T19:39:39.240Z,85.35
2022-09-14T19:42:11.049Z,85.51
2022-09-14T19:44:40.190Z,85.44
2022-09-14T19:47:09.464Z,85.48
2022-09-14T19:49:41.757Z,85.27
2022-09-14T19:52:13.899Z,85.42
2022-09-14T19:54:46.090Z,85.37
2022-09-14T19:57:20.605Z,85.44
2022-09-14T19:59:49.427Z,85.33
2022-09-14T20:02:24.018Z,85.25
2022-09-14T20:04:54.593Z,85.33
2022-09-14T20:07:25.461Z,85.18
2022-09-14T20:09:56.598Z,85.22
2022-09-14T20:12:25.736Z,85.22
2022-09-14T20:14:54.643Z,85.19
2022-09-14T20:17:27.121Z,84.96
2022-09-14T20:19:56.107Z,85.20
2022-09-14T20:22:25.614Z,85.31
2022-09-14T20:25:01.547Z,85.29
2022-09-14T20:27:33.897Z,85.27
2022-09-14T20:30:02.637Z,85.16
2022-09-14T20:32:33.067Z,85.31
2022-09-14T20:35:28.150Z,85.16
2022-09-14T20:37:57.344Z,85.22
2022-09-14T20:40:27.813Z,85.29
2022-09-14T20:42:56.590Z,85.14
2022-09-14T20:45:27.457Z,85.16
2022-09-14T20:47:56.151Z,85.27
2022-09-14T20:50:25.775Z,84.88
2022-09-14T20:53:00.271Z,84.77
2022-09-14T20:55:33.020Z,84.86
2022-09-14T20:58:01.993Z,85.22
2022-09-14T21:00:30.749Z,85.01
2022-09-14T21:02:59.685Z,85.10
2022-09-14T21:05:28.427Z,85.26
2022-09-14T21:07:57.749Z,85.16
2022-09-14T21:10:29.538Z,85.13
2022-09-14T21:13:00.481Z,85.04
2022-09-14T21:15:29.218Z,84.92
2022-09-14T21:17:59.122Z,85.01
2022-09-14T21:20:28.054Z,85.15
2022-09-14T21:22:57.010Z,85.10
2022-09-14T21:25:25.724Z,85.04
2022-09-14T21:27:54.391Z,85.14
2022-09-14T21:30:24.860Z,85.14
2022-09-14T21:32:53.844Z,85.06
2022-09-14T21:35:22.761Z,85.07
2022-09-14T21:37:52.804Z,85.10
2022-09-14T21:40:22.425Z,85.11
2022-09-14T21:42:51.147Z,85.16
2022-09-14T21:45:19.845Z,85.31
2022-09-14T21:47:50.465Z,85.20
2022-09-14T21:50:19.355Z,85.19
2022-09-14T21:52:48.122Z,85.16
2022-09-14T21:55:17.526Z,85.19
2022-09-14T21:57:50.531Z,85.27
2022-09-14T22:00:20.289Z,85.27
2022-09-14T22:02:53.571Z,85.30
2022-09-14T22:05:30.409Z,85.22
2022-09-14T22:07:59.596Z,85.24
2022-09-14T22:10:31.558Z,85.34
2022-09-14T22:13:00.751Z,85.19
2022-09-14T22:15:35.515Z,85.57
2022-09-14T22:18:07.627Z,85.50
2022-09-14T22:20:37.077Z,85.53
2022-09-14T22:23:06.292Z,85.38
2022-09-14T22:25:39.738Z,85.39
2022-09-14T22:28:08.960Z,85.58
2022-09-14T22:30:37.790Z,85.60
2022-09-14T22:33:08.547Z,85.55
2022-09-14T22:35:37.213Z,85.54
2022-09-14T22:38:07.843Z,85.40
2022-09-14T22:40:36.552Z,85.53
2022-09-14T22:43:05.277Z,85.52
2022-09-14T22:45:33.984Z,85.51
2022-09-14T22:48:03.269Z,85.72
2022-09-14T22:50:33.314Z,85.77
2022-09-14T22:53:02.051Z,85.78
2022-09-14T22:55:30.980Z,85.91
2022-09-14T22:57:59.998Z,85.72
2022-09-14T23:00:28.948Z,85.81
2022-09-14T23:02:57.927Z,85.53
2022-09-14T23:05:26.615Z,85.57
2022-09-14T23:07:57.231Z,85.64
2022-09-14T23:10:26.642Z,85.59
2022-09-14T23:12:55.517Z,85.38
2022-09-14T23:15:24.195Z,85.92
2022-09-14T23:17:53.695Z,85.63
2022-09-14T23:20:22.617Z,85.83
2022-09-14T23:22:51.719Z,85.95
2022-09-14T23:25:22.151Z,85.74
2022-09-14T23:27:51.355Z,85.71
2022-09-14T23:30:20.677Z,85.62
2022-09-14T23:32:53.222Z,85.84
2022-09-14T23:35:22.315Z,85.72
2022-09-14T23:37:51.757Z,85.64
2022-09-14T23:40:22.697Z,85.91
2022-09-14T23:42:52.137Z,85.58
2022-09-14T23:45:21.368Z,85.70
2022-09-14T23:47:50.271Z,85.87
2022-09-14T23:50:20.796Z,85.76
2022-09-14T23:52:49.726Z,85.73
2022-09-14T23:55:22.701Z,85.65
2022-09-14T23:57:51.690Z,85.90
